Time;durP1;ratioP1;P1;durP2;ratioP2;P2;SDS_P1;SDS_P2;PMS_P1;PMS_P2;Temp;Humidity;BMP_temperature;BMP_pressure;BME280_temperature;BME280_humidity;BME280_pressure;Samples;Min_cycle;Max_cycle;Signal;HPM_P1;HPM_P2
2022/12/26 00:00:57;;;;;;;40.63;31.57;;;;;;;5.28;100.00;102475.25;2115405;28;20194;-63
2022/12/26 00:01:59;;;;;;;43.80;34.22;;;;;;;5.29;100.00;102476.84;2114855;28;20169;-63
2022/12/26 00:02:59;;;;;;;38.05;30.77;;;;;;;5.23;100.00;102485.72;2113465;28;20230;-63
2022/12/26 00:04:00;;;;;;;42.60;34.33;;;;;;;5.24;100.00;102493.59;2107102;28;20224;-63
2022/12/26 00:05:01;;;;;;;43.27;35.20;;;;;;;5.25;100.00;102495.22;2115677;28;20226;-63
2022/12/26 00:06:01;;;;;;;47.40;34.80;;;;;;;5.24;100.00;102496.34;2115377;28;20647;-63
2022/12/26 00:07:02;;;;;;;43.33;32.03;;;;;;;5.22;100.00;102501.41;2108898;28;20614;-63
2022/12/26 00:08:03;;;;;;;27.43;21.20;;;;;;;5.16;100.00;102483.56;2113648;28;20204;-63
2022/12/26 00:09:05;;;;;;;33.03;26.30;;;;;;;5.19;100.00;102495.81;2111180;28;20190;-63
2022/12/26 00:10:06;;;;;;;28.58;23.58;;;;;;;5.16;100.00;102505.56;2106782;28;20202;-63
2022/12/26 00:11:06;;;;;;;34.10;28.02;;;;;;;5.16;100.00;102502.00;2109178;28;20699;-63
2022/12/26 00:12:07;;;;;;;22.87;18.63;;;;;;;5.10;100.00;102504.22;2113728;28;20531;-63
2022/12/26 00:13:07;;;;;;;27.07;22.33;;;;;;;4.72;100.00;102445.41;2106822;28;20216;-63
2022/12/26 00:14:11;;;;;;;15.50;11.00;;;;;;;5.09;100.00;102499.88;2115128;28;20219;-63
2022/12/26 00:15:11;;;;;;;20.90;15.40;;;;;;;5.10;100.00;102497.91;2115417;28;20197;-63
2022/12/26 00:16:18;;;;;;;16.37;11.40;;;;;;;5.10;100.00;102503.41;2108857;28;20187;-63
2022/12/26 00:17:19;;;;;;;12.73;9.02;;;;;;;5.10;100.00;102492.41;2106903;28;20226;-63
2022/12/26 00:18:19;;;;;;;13.50;9.80;;;;;;;5.10;100.00;102498.72;2106764;28;20177;-63
2022/12/26 00:19:20;;;;;;;12.87;8.33;;;;;;;5.12;100.00;102498.38;2106909;28;20336;-63
2022/12/26 00:20:20;;;;;;;10.47;8.33;;;;;;;5.09;100.00;102502.63;2109229;28;20194;-63
2022/12/26 00:21:22;;;;;;;10.13;7.43;;;;;;;5.10;100.00;102497.91;2114775;28;20173;-63
2022/12/26 00:22:23;;;;;;;12.02;7.95;;;;;;;5.09;100.00;102510.88;2114569;28;20178;-63
2022/12/26 00:23:23;;;;;;;10.97;7.43;;;;;;;5.13;100.00;102499.97;2106858;28;20176;-63
2022/12/26 00:24:23;;;;;;;10.13;7.30;;;;;;;5.14;100.00;102505.09;2106649;28;20194;-63
2022/12/26 00:25:24;;;;;;;11.63;7.33;;;;;;;5.14;100.00;102502.34;2113463;28;20209;-63
2022/12/26 00:26:28;;;;;;;9.93;6.60;;;;;;;5.13;100.00;102503.50;2115163;28;20196;-63
2022/12/26 00:27:28;;;;;;;11.70;6.65;;;;;;;5.01;100.00;102483.50;2110700;28;20247;-63
2022/12/26 00:28:29;;;;;;;9.13;6.53;;;;;;;5.04;100.00;102508.38;2106521;28;20351;-63
2022/12/26 00:29:29;;;;;;;9.83;6.20;;;;;;;5.03;100.00;102505.97;2107881;28;20250;-63
2022/12/26 00:30:30;;;;;;;8.90;6.40;;;;;;;4.99;100.00;102503.13;2113686;28;20242;-63
2022/12/26 00:31:32;;;;;;;9.53;6.53;;;;;;;5.03;100.00;102504.00;2106693;28;20185;-63
2022/12/26 00:32:33;;;;;;;12.05;6.70;;;;;;;5.04;100.00;102507.56;2106444;28;20171;-63
2022/12/26 00:33:34;;;;;;;8.97;6.00;;;;;;;5.08;100.00;102497.47;2114282;28;20187;-63
2022/12/26 00:34:34;;;;;;;10.82;7.63;;;;;;;5.03;100.00;102486.72;2108789;28;20183;-63
2022/12/26 00:35:35;;;;;;;14.97;8.70;;;;;;;5.13;100.00;102497.22;2111783;28;20268;-63
2022/12/26 00:36:35;;;;;;;18.57;10.50;;;;;;;5.10;100.00;102484.97;2111167;27;20186;-63
2022/12/26 00:37:36;;;;;;;17.03;9.80;;;;;;;5.11;100.00;102483.81;2106677;28;20201;-63
2022/12/26 00:38:37;;;;;;;15.20;8.47;;;;;;;5.18;100.00;102500.50;2108197;28;20603;-63
2022/12/26 00:39:37;;;;;;;13.63;8.30;;;;;;;5.20;100.00;102500.16;2114985;27;20174;-63
2022/12/26 00:40:42;;;;;;;12.83;8.37;;;;;;;4.94;100.00;102458.59;2115243;28;20170;-63
2022/12/26 00:41:42;;;;;;;12.73;8.57;;;;;;;4.45;100.00;102383.00;2106397;28;20206;-63
2022/12/26 00:42:43;;;;;;;12.73;8.40;;;;;;;5.25;100.00;102489.72;2120470;27;20185;-63
2022/12/26 00:43:43;;;;;;;14.10;8.87;;;;;;;5.27;100.00;102492.91;2117457;27;20217;-63
2022/12/26 00:44:44;;;;;;;13.40;8.47;;;;;;;5.29;100.00;102493.34;2114973;28;20265;-63
2022/12/26 00:45:47;;;;;;;15.40;9.33;;;;;;;5.30;100.00;102485.91;2111435;28;20625;-63
2022/12/26 00:46:47;;;;;;;13.20;9.50;;;;;;;5.31;100.00;102491.06;2112197;27;20171;-63
2022/12/26 00:47:47;;;;;;;13.23;8.97;;;;;;;5.31;100.00;102498.47;2121829;27;20474;-63
2022/12/26 00:48:48;;;;;;;13.57;8.90;;;;;;;5.29;100.00;102489.81;2114812;28;20558;-63
2022/12/26 00:49:48;;;;;;;14.40;8.43;;;;;;;5.27;100.00;102494.84;2115202;27;20162;-63
2022/12/26 00:50:49;;;;;;;12.87;8.10;;;;;;;4.79;100.00;102424.44;2115036;28;20186;-63
2022/12/26 00:51:50;;;;;;;12.70;8.10;;;;;;;5.17;100.00;102495.34;2108229;28;20695;-63
2022/12/26 00:52:50;;;;;;;12.87;7.70;;;;;;;5.14;100.00;102483.09;2111197;28;20185;-63
2022/12/26 00:53:50;;;;;;;11.97;7.73;;;;;;;5.20;100.00;102491.91;2114940;28;20589;-63
2022/12/26 00:54:51;;;;;;;14.40;8.00;;;;;;;5.22;100.00;102486.84;2115025;28;20217;-63
2022/12/26 00:55:52;;;;;;;13.57;8.27;;;;;;;5.23;100.00;102496.72;2114893;28;20686;-63
2022/12/26 00:56:53;;;;;;;10.88;7.85;;;;;;;5.24;100.00;102493.59;2114098;28;20227;-63
2022/12/26 00:57:53;;;;;;;14.60;9.17;;;;;;;5.27;100.00;102486.59;2106694;28;20183;-63
2022/12/26 00:58:53;;;;;;;13.83;8.50;;;;;;;5.26;100.00;102483.06;2114581;28;20184;-63
2022/12/26 00:59:54;;;;;;;14.33;8.20;;;;;;;5.19;100.00;102480.09;2114550;28;20186;-63
2022/12/26 01:00:55;;;;;;;16.13;9.90;;;;;;;5.27;100.00;102486.59;2122829;27;20185;-63
2022/12/26 01:01:55;;;;;;;16.50;10.20;;;;;;;5.27;100.00;102494.84;2117696;27;20671;-63
2022/12/26 01:02:55;;;;;;;14.20;9.43;;;;;;;5.25;100.00;102481.47;2109479;28;20182;-63
2022/12/26 01:03:56;;;;;;;16.27;9.70;;;;;;;5.28;100.00;102491.75;2114548;28;20189;-63
2022/12/26 01:04:57;;;;;;;14.50;9.80;;;;;;;5.28;100.00;102480.75;2114919;28;20238;-63
2022/12/26 01:05:57;;;;;;;16.07;9.93;;;;;;;4.52;100.00;102359.31;2114931;28;20623;-63
2022/12/26 01:06:57;;;;;;;14.63;9.60;;;;;;;5.29;100.00;102479.59;2115119;28;20274;-63
2022/12/26 01:07:58;;;;;;;15.53;9.17;;;;;;;5.30;100.00;102478.47;2114598;28;20567;-63
2022/12/26 01:08:58;;;;;;;15.03;8.87;;;;;;;5.31;100.00;102479.25;2109063;28;20222;-63
2022/12/26 01:09:59;;;;;;;12.70;8.57;;;;;;;4.56;100.00;102360.22;2111080;28;20189;-63
2022/12/26 01:11:05;;;;;;;13.03;8.73;;;;;;;5.31;100.00;102477.31;2114845;28;20648;-63
2022/12/26 01:12:06;;;;;;;11.52;8.10;;;;;;;5.29;100.00;102474.09;2114264;28;20170;-63
2022/12/26 01:13:07;;;;;;;17.20;8.30;;;;;;;5.29;100.00;102476.84;2114620;28;20648;-63
2022/12/26 01:14:11;;;;;;;12.20;7.95;;;;;;;4.77;100.00;102402.00;2114619;28;20205;-63
2022/12/26 01:15:12;;;;;;;9.93;6.65;;;;;;;5.25;100.00;102483.41;2114766;28;20170;-63
2022/12/26 01:16:12;;;;;;;10.53;6.93;;;;;;;4.87;100.00;102434.47;2114881;28;20174;-62
2022/12/26 01:17:12;;;;;;;11.60;7.50;;;;;;;5.12;100.00;102477.16;2114773;28;20206;-63
2022/12/26 01:18:13;;;;;;;11.33;7.47;;;;;;;5.18;100.00;102492.25;2114548;28;20668;-63
2022/12/26 01:19:13;;;;;;;9.67;6.97;;;;;;;5.17;100.00;102503.59;2109823;28;20194;-63
2022/12/26 01:20:14;;;;;;;13.23;6.90;;;;;;;5.17;100.00;102489.84;2110209;28;20182;-63
2022/12/26 01:21:14;;;;;;;11.37;7.37;;;;;;;5.17;100.00;102487.09;2114561;28;20217;-63
2022/12/26 01:22:15;;;;;;;11.10;6.90;;;;;;;5.14;100.00;102488.59;2113030;28;20664;-63
2022/12/26 01:23:16;;;;;;;11.07;8.00;;;;;;;5.14;100.00;102490.56;2105940;28;20555;-63
2022/12/26 01:24:16;;;;;;;11.90;6.78;;;;;;;5.12;100.00;102487.38;2106332;28;20228;-63
2022/12/26 01:25:17;;;;;;;10.20;6.90;;;;;;;4.98;100.00;102465.78;2106422;28;20225;-63
2022/12/26 01:26:17;;;;;;;10.10;7.47;;;;;;;5.14;100.00;102487.81;2106238;28;20519;-63
2022/12/26 01:27:18;;;;;;;10.60;6.93;;;;;;;5.12;100.00;102492.88;2106364;28;20178;-63
2022/12/26 01:28:19;;;;;;;10.53;7.13;;;;;;;4.38;100.00;102375.41;2106136;28;20259;-63
2022/12/26 01:29:19;;;;;;;10.73;7.10;;;;;;;5.07;100.00;102495.88;2109360;28;20586;-63
2022/12/26 01:30:20;;;;;;;12.90;7.80;;;;;;;5.06;100.00;102497.81;2114328;28;20720;-63
2022/12/26 01:31:22;;;;;;;11.60;7.43;;;;;;;5.04;100.00;102488.31;2113661;28;20177;-63
2022/12/26 01:32:22;;;;;;;9.15;6.90;;;;;;;4.95;100.00;102491.22;2106072;28;20284;-63
2022/12/26 01:33:23;;;;;;;9.90;7.27;;;;;;;4.95;100.00;102495.91;2114564;28;20191;-63
2022/12/26 01:34:23;;;;;;;11.53;7.00;;;;;;;4.95;100.00;102493.97;2114631;28;20193;-63
2022/12/26 01:35:23;;;;;;;11.60;7.67;;;;;;;4.55;100.00;102432.75;2114677;28;20197;-63
2022/12/26 01:36:24;;;;;;;9.77;6.97;;;;;;;4.94;100.00;102495.13;2114601;28;20277;-63
2022/12/26 01:37:25;;;;;;;12.37;7.57;;;;;;;4.75;100.00;102469.41;2118177;27;20193;-63
2022/12/26 01:38:25;;;;;;;10.73;8.33;;;;;;;4.92;100.00;102502.09;2120637;27;20337;-63
2022/12/26 01:39:26;;;;;;;11.70;8.70;;;;;;;4.88;100.00;102501.97;2114580;28;20426;-63
2022/12/26 01:40:26;;;;;;;11.67;9.27;;;;;;;4.87;100.00;102502.34;2114605;28;20174;-63
2022/12/26 01:41:29;;;;;;;12.30;8.90;;;;;;;4.86;100.00;102504.28;2114200;28;20186;-63
2022/12/26 01:42:37;;;;;;;13.80;10.35;;;;;;;4.86;100.00;102496.06;2114047;28;20206;-63
2022/12/26 01:43:56;;;;;;;13.20;9.68;;;;;;;4.86;100.00;102506.22;2107319;28;20250;-63
2022/12/26 01:45:05;;;;;;;12.98;9.95;;;;;;;4.83;100.00;102504.97;2106365;28;20189;-63
2022/12/26 01:46:05;;;;;;;15.25;10.60;;;;;;;4.80;100.00;102508.44;2106266;28;20544;-63
2022/12/26 01:47:06;;;;;;;13.97;10.77;;;;;;;4.82;100.00;102508.09;2113811;28;20192;-63
2022/12/26 01:48:24;;;;;;;11.57;9.47;;;;;;;4.79;100.00;102506.84;2107936;28;20195;-63
2022/12/26 01:49:25;;;;;;;14.35;11.20;;;;;;;4.78;100.00;102502.47;2111853;28;20317;-63
2022/12/26 01:50:46;;;;;;;15.30;12.60;;;;;;;4.00;100.00;102391.47;2114489;28;20182;-63
2022/12/26 01:51:54;;;;;;;20.83;16.48;;;;;;;4.72;100.00;102519.56;2105966;28;20647;-63
2022/12/26 01:52:58;;;;;;;26.23;18.98;;;;;;;4.73;100.00;102530.19;2105864;28;20181;-63
2022/12/26 01:54:04;;;;;;;25.25;20.08;;;;;;;4.22;100.00;102439.59;2105995;28;20251;-63
2022/12/26 01:55:09;;;;;;;23.35;18.10;;;;;;;4.69;100.00;102526.56;2106251;28;20276;-63
2022/12/26 01:56:19;;;;;;;21.48;17.92;;;;;;;4.68;100.00;102521.41;2106047;28;20188;-63
2022/12/26 01:57:26;;;;;;;19.52;15.70;;;;;;;4.66;100.00;102519.00;2112949;28;20191;-63
2022/12/26 01:58:32;;;;;;;22.92;17.52;;;;;;;4.67;100.00;102515.09;2108082;28;20545;-63
2022/12/26 01:59:36;;;;;;;28.02;21.25;;;;;;;4.67;100.00;102515.09;2106183;28;20600;-63
2022/12/26 02:00:37;;;;;;;26.77;21.25;;;;;;;3.69;100.00;102361.13;2105963;28;20217;-63
2022/12/26 02:01:41;;;;;;;25.27;20.15;;;;;;;4.65;100.00;102511.91;2107999;28;20191;-63
2022/12/26 02:05:33;;;;;;;26.55;19.77;;;;;;;4.63;100.00;102518.88;2106103;28;20555;-63
2022/12/26 02:06:35;;;;;;;27.83;21.55;;;;;;;4.60;100.00;102517.63;2106103;28;20814;-63
2022/12/26 02:07:39;;;;;;;29.02;21.88;;;;;;;4.57;100.00;102523.81;2112208;28;20634;-63
2022/12/26 02:08:40;;;;;;;30.35;22.48;;;;;;;4.59;100.00;102517.97;2114260;28;20216;-63
2022/12/26 02:09:41;;;;;;;30.83;23.10;;;;;;;4.57;100.00;102514.78;2110122;28;20265;-63
2022/12/26 02:10:51;;;;;;;28.83;22.13;;;;;;;4.58;100.00;102519.13;2105901;28;20658;-63
2022/12/26 02:12:03;;;;;;;30.77;23.88;;;;;;;4.56;100.00;102519.47;2108882;28;20498;-63
2022/12/26 02:13:04;;;;;;;32.13;23.83;;;;;;;4.53;100.00;102520.19;2110306;28;20263;-63
2022/12/26 02:14:06;;;;;;;31.23;24.53;;;;;;;4.50;100.00;102518.13;2105981;28;20202;-63
2022/12/26 02:15:12;;;;;;;32.10;24.38;;;;;;;4.46;100.00;102519.94;2105807;28;20654;-63
2022/12/26 02:16:15;;;;;;;35.22;26.63;;;;;;;4.34;100.00;102495.25;2105851;28;20624;-63
2022/12/26 02:17:16;;;;;;;37.38;28.38;;;;;;;3.60;100.00;102381.59;2105772;28;20240;-63
2022/12/26 02:18:16;;;;;;;34.63;26.60;;;;;;;4.48;100.00;102523.16;2105994;28;20646;-63
2022/12/26 02:19:34;;;;;;;36.20;27.70;;;;;;;4.48;100.00;102528.66;2105922;28;20543;-63
2022/12/26 02:21:05;;;;;;;35.80;26.80;;;;;;;4.47;100.00;102527.03;2106003;28;20179;-62
2022/12/26 02:22:31;;;;;;;33.13;26.25;;;;;;;4.47;100.00;102532.53;2107758;28;20179;-63
2022/12/26 02:24:18;;;;;;;32.40;24.67;;;;;;;4.43;100.00;102526.13;2091586;28;20776;-63
2022/12/26 02:25:50;;;;;;;32.13;24.33;;;;;;;4.39;100.00;102529.91;2106481;28;20184;-63
2022/12/26 02:27:36;;;;;;;32.58;24.00;;;;;;;4.38;100.00;102531.06;2096246;28;20198;-63
2022/12/26 02:29:07;;;;;;;30.63;23.73;;;;;;;4.37;100.00;102527.50;2104684;28;20581;-63
2022/12/26 02:30:33;;;;;;;32.40;24.35;;;;;;;4.36;100.00;102531.38;2107264;28;20259;-63
2022/12/26 02:31:56;;;;;;;30.80;23.90;;;;;;;4.37;100.00;102532.19;2111857;28;20206;-63
2022/12/26 02:33:07;;;;;;;31.60;21.17;;;;;;;4.37;100.00;102534.94;2117384;27;20173;-63
2022/12/26 02:34:26;;;;;;;30.58;22.80;;;;;;;4.30;100.00;102516.31;2113948;28;20200;-63
2022/12/26 02:35:45;;;;;;;28.55;21.60;;;;;;;4.15;100.00;102494.25;2106137;28;20646;-63
2022/12/26 02:37:04;;;;;;;29.23;21.23;;;;;;;4.40;100.00;102528.75;2105962;28;20167;-63
2022/12/26 02:38:28;;;;;;;28.45;19.73;;;;;;;4.39;100.00;102532.66;2112457;28;20204;-63
2022/12/26 02:39:41;;;;;;;25.50;18.73;;;;;;;4.41;100.00;102530.38;2105947;28;20223;-63
2022/12/26 02:40:55;;;;;;;27.65;19.42;;;;;;;4.41;100.00;102528.41;2105793;28;20186;-63
2022/12/26 02:42:12;;;;;;;30.67;20.60;;;;;;;4.41;100.00;102522.91;2105263;28;20204;-63
2022/12/26 02:43:22;;;;;;;30.75;21.83;;;;;;;4.41;100.00;102528.41;2105604;28;20187;-63
2022/12/26 02:47:51;;;;;;;31.40;20.15;;;;;;;4.38;100.00;102520.88;2117192;27;20194;-64
2022/12/26 02:49:15;;;;;;;26.60;19.42;;;;;;;4.37;100.00;102522.00;2117058;27;20291;-63
2022/12/26 03:13:32;;;;;;;25.10;17.15;;;;;;;3.36;100.00;102419.94;2105887;28;20608;-63
2022/12/26 03:14:49;;;;;;;24.30;16.95;;;;;;;3.80;100.00;102487.63;2105063;28;20182;-63
2022/12/26 03:17:29;;;;;;;24.73;17.40;;;;;;;3.29;100.00;102401.31;2111272;28;27124;-63
2022/12/26 03:18:33;;;;;;;28.13;18.30;;;;;;;3.78;100.00;102489.88;2105567;28;20552;-63
2022/12/26 03:19:56;;;;;;;24.95;18.63;;;;;;;3.74;100.00;102489.78;2105552;28;20211;-63
2022/12/26 03:20:59;;;;;;;21.75;15.77;;;;;;;3.68;100.00;102491.16;2105733;28;20179;-63
2022/12/26 03:22:29;;;;;;;23.02;16.42;;;;;;;3.65;100.00;102494.56;2105142;28;20616;-63
2022/12/26 03:23:23;;;;;;;21.45;15.55;;;;;;;3.55;100.00;102486.75;2111442;28;20616;-63
2022/12/26 03:24:24;;;;;;;20.77;15.38;;;;;;;3.59;100.00;102501.41;2113836;28;20632;-63
2022/12/26 03:27:06;;;;;;;23.90;15.88;;;;;;;3.17;100.00;102438.84;2105783;28;20196;-63
2022/12/26 03:28:07;;;;;;;18.97;15.03;;;;;;;3.46;100.00;102485.28;2105455;28;20278;-63
2022/12/26 03:30:48;;;;;;;28.45;16.45;;;;;;;3.37;100.00;102488.13;2105369;28;20230;-63
2022/12/26 03:31:48;;;;;;;24.05;15.43;;;;;;;3.36;100.00;102482.97;2105395;28;20173;-63
2022/12/26 03:32:49;;;;;;;21.47;14.33;;;;;;;3.34;100.00;102479.78;2113185;28;20175;-63
2022/12/26 03:35:13;;;;;;;21.52;13.70;;;;;;;3.29;100.00;102482.72;2105945;28;20261;-63
2022/12/26 03:36:38;;;;;;;17.63;13.65;;;;;;;3.26;100.00;102486.13;2105480;28;20199;-63
2022/12/26 03:37:55;;;;;;;22.00;14.18;;;;;;;3.23;100.00;102484.09;2105452;28;20222;-63
2022/12/26 03:39:06;;;;;;;19.73;12.63;;;;;;;3.24;100.00;102485.69;2105701;28;20159;-63
2022/12/26 04:19:59;;;;;;;12.55;10.20;;;;;;;3.05;100.00;102538.25;2107052;28;20187;-63
2022/12/26 04:44:14;;;;;;;9.38;6.93;;;;;;;3.40;100.00;102544.19;2106769;28;20657;-62
2022/12/26 04:45:15;;;;;;;9.57;6.30;;;;;;;3.43;100.00;102549.78;2106831;28;20198;-63
2022/12/26 04:46:18;;;;;;;8.83;5.90;;;;;;;3.42;100.00;102550.94;2106610;28;20260;-63
2022/12/26 04:47:18;;;;;;;7.72;5.70;;;;;;;3.43;100.00;102559.94;2106794;28;20193;-63
2022/12/26 04:51:01;;;;;;;7.55;5.40;;;;;;;3.47;100.00;102560.88;2115385;28;20251;-63
2022/12/26 04:52:10;;;;;;;7.57;5.30;;;;;;;3.48;100.00;102566.03;2106883;28;20191;-62
2022/12/26 04:53:11;;;;;;;8.57;5.50;;;;;;;3.49;100.00;102555.88;2113883;28;20235;-63
2022/12/26 04:54:11;;;;;;;6.47;4.73;;;;;;;3.47;100.00;102563.63;2114790;28;20227;-63
2022/12/26 04:55:12;;;;;;;6.70;4.63;;;;;;;3.26;100.00;102541.75;2109815;28;20175;-63
2022/12/26 04:56:13;;;;;;;8.53;5.33;;;;;;;3.28;100.00;102555.91;2106467;28;20626;-63
2022/12/26 04:57:14;;;;;;;9.13;5.85;;;;;;;3.33;100.00;102555.69;2109667;28;20213;-63
2022/12/26 04:58:14;;;;;;;9.70;5.90;;;;;;;3.42;100.00;102563.81;2114832;28;20275;-62
2022/12/26 04:59:15;;;;;;;9.90;6.57;;;;;;;3.47;100.00;102556.22;2114295;28;20179;-63
2022/12/26 05:00:16;;;;;;;9.00;6.82;;;;;;;3.36;100.00;102535.03;2106715;28;20171;-63
2022/12/26 05:10:30;;;;;;;12.23;7.53;;;;;;;3.53;100.00;102576.78;2106630;28;20159;-63
2022/12/26 05:11:33;;;;;;;8.30;6.47;;;;;;;3.52;100.00;102582.59;2113552;28;20195;-63
2022/12/26 05:12:34;;;;;;;12.98;7.50;;;;;;;3.51;100.00;102579.06;2114322;28;20180;-63
2022/12/26 05:13:34;;;;;;;9.27;6.63;;;;;;;3.52;100.00;102574.38;2109612;28;20192;-63
2022/12/26 05:14:35;;;;;;;9.33;6.57;;;;;;;3.52;100.00;102582.59;2106394;28;20670;-62
2022/12/26 05:28:40;;;;;;;12.13;6.90;;;;;;;2.92;100.00;102487.25;2105727;28;20342;-63
2022/12/26 05:29:02;;;;;;;13.07;8.25;;;;;;;3.12;100.00;102571.34;2106481;28;20183;-62
2022/12/26 05:30:05;;;;;;;14.48;8.77;;;;;;;3.12;100.00;102586.97;2114636;28;20241;-62
2022/12/26 05:31:06;;;;;;;11.75;8.00;;;;;;;2.73;100.00;102524.47;2114655;28;20186;-63
2022/12/26 05:32:06;;;;;;;10.75;8.90;;;;;;;3.01;100.00;102589.34;2114232;28;20217;-63
2022/12/26 05:34:27;;;;;;;10.98;8.60;;;;;;;2.94;100.00;102593.75;2115838;27;20215;-62
2022/12/26 05:35:27;;;;;;;11.87;9.13;;;;;;;2.89;100.00;102592.03;2114715;28;20269;-62
2022/12/26 05:36:32;;;;;;;13.27;9.10;;;;;;;2.85;100.00;102591.06;2109927;28;20190;-63
2022/12/26 05:37:34;;;;;;;14.48;9.85;;;;;;;2.83;100.00;102589.81;2110538;28;20192;-62
2022/12/26 05:38:35;;;;;;;16.13;9.45;;;;;;;2.74;100.00;102575.38;2114649;28;20204;-62
2022/12/26 05:39:35;;;;;;;12.43;9.02;;;;;;;2.44;100.00;102530.81;2114614;28;20182;-63
2022/12/26 05:40:36;;;;;;;14.20;9.00;;;;;;;2.71;100.00;102576.81;2114540;28;20180;-62
2022/12/26 05:41:37;;;;;;;17.47;9.27;;;;;;;2.77;100.00;102591.91;2114412;28;20258;-63
2022/12/26 05:42:38;;;;;;;20.42;9.38;;;;;;;2.74;100.00;102581.66;2122379;27;20186;-62
2022/12/26 05:43:38;;;;;;;16.73;9.67;;;;;;;2.75;100.00;102582.44;2115859;27;20188;-63
2022/12/26 05:44:38;;;;;;;20.97;9.57;;;;;;;2.75;100.00;102591.47;2108599;28;20190;-62
2022/12/26 05:45:39;;;;;;;21.40;9.67;;;;;;;2.75;100.00;102588.72;2110883;28;20181;-62
2022/12/26 05:46:41;;;;;;;16.37;9.60;;;;;;;2.78;100.00;102581.78;2114552;28;20225;-62
2022/12/26 05:47:41;;;;;;;16.98;9.40;;;;;;;2.80;100.00;102594.00;2111914;28;20179;-63
2022/12/26 05:48:42;;;;;;;17.63;9.70;;;;;;;2.80;100.00;102584.97;2105931;28;20723;-62
2022/12/26 05:49:42;;;;;;;16.20;10.17;;;;;;;2.81;100.00;102589.31;2114058;28;20215;-62
2022/12/26 05:50:43;;;;;;;14.67;9.07;;;;;;;2.84;100.00;102589.47;2114784;28;20166;-62
2022/12/26 05:51:43;;;;;;;13.17;8.80;;;;;;;2.84;100.00;102589.47;2106660;28;20560;-63
2022/12/26 05:52:44;;;;;;;14.13;8.90;;;;;;;2.85;100.00;102587.53;2105773;28;20477;-63
2022/12/26 05:53:44;;;;;;;20.87;9.83;;;;;;;2.86;100.00;102583.66;2106168;28;20251;-63
2022/12/26 05:54:45;;;;;;;13.57;8.83;;;;;;;2.87;100.00;102588.78;2110104;28;20198;-63
2022/12/26 05:55:45;;;;;;;16.10;9.23;;;;;;;2.88;100.00;102587.66;2114395;28;20237;-62
2022/12/26 05:56:46;;;;;;;13.73;8.73;;;;;;;2.88;100.00;102589.59;2116068;27;20227;-63
2022/12/26 05:57:46;;;;;;;17.20;8.60;;;;;;;2.85;100.00;102587.53;2122402;27;20254;-63
2022/12/26 05:58:47;;;;;;;16.53;8.67;;;;;;;2.91;100.00;102591.66;2114761;28;20196;-62
2022/12/26 05:59:47;;;;;;;14.33;8.20;;;;;;;2.90;100.00;102588.13;2122314;27;20668;-62
2022/12/26 06:00:47;;;;;;;17.93;8.90;;;;;;;2.90;100.00;102587.31;2124112;27;20204;-62
2022/12/26 06:01:48;;;;;;;18.07;9.07;;;;;;;2.92;100.00;102588.59;2127349;27;20676;-63
2022/12/26 06:02:48;;;;;;;16.03;11.47;;;;;;;2.90;100.00;102584.59;2118279;27;20227;-63
2022/12/26 06:03:54;;;;;;;14.93;9.73;;;;;;;2.88;100.00;102598.59;2111245;28;20545;-62
2022/12/26 06:04:54;;;;;;;18.42;9.70;;;;;;;2.82;100.00;102590.94;2108656;28;20163;-63
2022/12/26 06:05:56;;;;;;;24.00;10.00;;;;;;;2.87;100.00;102597.00;2114276;28;20206;-63
2022/12/26 06:06:56;;;;;;;18.77;9.75;;;;;;;2.89;100.00;102599.41;2114668;28;20562;-63
2022/12/26 06:07:57;;;;;;;15.60;10.40;;;;;;;2.88;100.00;102603.31;2122976;27;20246;-62
2022/12/26 06:08:57;;;;;;;16.07;10.03;;;;;;;2.88;100.00;102593.13;2112393;27;20347;-62
2022/12/26 06:09:58;;;;;;;14.50;9.00;;;;;;;2.26;100.00;102504.66;2113552;28;20258;-62
2022/12/26 06:11:02;;;;;;;14.10;8.70;;;;;;;2.86;100.00;102614.59;2110149;28;20722;-63
2022/12/26 06:12:02;;;;;;;14.60;9.18;;;;;;;2.89;100.00;102602.16;2113834;28;20198;-62
2022/12/26 06:13:03;;;;;;;21.87;9.20;;;;;;;2.82;100.00;102599.94;2114011;28;20439;-62
2022/12/26 06:14:03;;;;;;;25.37;9.73;;;;;;;2.85;100.00;102606.69;2114387;28;20202;-63
2022/12/26 06:15:04;;;;;;;16.77;9.03;;;;;;;2.82;100.00;102607.38;2114355;28;20179;-63
2022/12/26 06:16:07;;;;;;;17.77;9.33;;;;;;;2.81;100.00;102605.75;2114454;28;20232;-63
2022/12/26 06:17:07;;;;;;;15.32;8.18;;;;;;;2.82;100.00;102604.63;2106159;28;20266;-62
2022/12/26 06:18:07;;;;;;;18.00;9.07;;;;;;;2.85;100.00;102607.50;2105674;28;20175;-62
2022/12/26 06:19:08;;;;;;;15.37;9.23;;;;;;;2.84;100.00;102611.38;2112343;28;20211;-62
2022/12/26 06:20:09;;;;;;;12.13;8.03;;;;;;;2.84;100.00;102613.31;2114175;28;20186;-63
2022/12/26 06:21:12;;;;;;;16.08;8.60;;;;;;;2.82;100.00;102616.38;2118407;27;20196;-63
2022/12/26 06:22:12;;;;;;;16.95;8.32;;;;;;;2.83;100.00;102617.19;2119287;27;20194;-62
2022/12/26 06:23:13;;;;;;;14.03;8.10;;;;;;;2.82;100.00;102623.81;2112160;28;20644;-63
2022/12/26 06:24:13;;;;;;;13.07;8.73;;;;;;;2.40;100.00;102561.88;2105616;28;20270;-63
2022/12/26 06:25:14;;;;;;;11.57;9.23;;;;;;;2.46;100.00;102583.25;2106246;28;20187;-62
2022/12/26 06:26:15;;;;;;;14.73;10.40;;;;;;;2.81;100.00;102636.69;2105856;28;20551;-62
2022/12/26 06:27:15;;;;;;;17.27;11.23;;;;;;;2.82;100.00;102632.00;2105356;28;20209;-62
2022/12/26 06:28:16;;;;;;;15.93;11.60;;;;;;;2.00;100.00;102500.50;2105370;28;20654;-62
2022/12/26 06:29:16;;;;;;;15.77;12.13;;;;;;;2.80;100.00;102626.88;2105886;28;20214;-62
2022/12/26 06:30:17;;;;;;;15.90;11.60;;;;;;;2.79;100.00;102636.22;2105553;28;20226;-62
2022/12/26 06:31:21;;;;;;;19.20;12.27;;;;;;;2.79;100.00;102633.47;2105336;28;20275;-62
2022/12/26 06:32:21;;;;;;;13.60;10.75;;;;;;;2.82;100.00;102632.81;2107106;28;20294;-62
2022/12/26 06:33:21;;;;;;;14.43;9.70;;;;;;;2.82;100.00;102632.00;2113874;28;20191;-62
2022/12/26 06:34:22;;;;;;;16.87;9.83;;;;;;;2.02;100.00;102504.50;2114388;28;20184;-62
2022/12/26 06:35:23;;;;;;;18.85;11.93;;;;;;;2.86;100.00;102627.47;2106611;28;20179;-62
2022/12/26 06:36:25;;;;;;;14.97;10.90;;;;;;;2.85;100.00;102636.81;2105808;28;20187;-62
2022/12/26 06:37:25;;;;;;;14.80;12.35;;;;;;;2.84;100.00;102636.03;2105941;28;20269;-62
2022/12/26 06:38:26;;;;;;;18.63;11.00;;;;;;;2.87;100.00;102640.03;2105653;28;20199;-62
2022/12/26 06:39:26;;;;;;;16.23;10.97;;;;;;;2.86;100.00;102635.66;2105881;28;20562;-62
2022/12/26 06:40:27;;;;;;;14.77;10.13;;;;;;;2.91;100.00;102636.28;2105590;28;20179;-62
2022/12/26 06:41:28;;;;;;;12.18;9.38;;;;;;;2.91;100.00;102638.22;2105498;28;20183;-62
2022/12/26 06:42:28;;;;;;;15.13;10.00;;;;;;;2.40;100.00;102559.13;2105466;28;20710;-63
2022/12/26 06:43:29;;;;;;;14.20;10.60;;;;;;;2.95;100.00;102637.25;2105962;28;20202;-62
2022/12/26 06:44:29;;;;;;;14.77;10.67;;;;;;;2.98;100.00;102631.09;2105618;28;20670;-62
2022/12/26 06:45:30;;;;;;;15.10;10.70;;;;;;;2.99;100.00;102635.41;2105790;28;20179;-62
2022/12/26 06:46:30;;;;;;;17.73;10.30;;;;;;;3.01;100.00;102632.34;2105688;28;20176;-62
2022/12/26 06:47:30;;;;;;;15.00;9.07;;;;;;;3.02;100.00;102626.53;2105825;28;20278;-62
2022/12/26 06:48:32;;;;;;;13.90;9.30;;;;;;;3.03;100.00;102627.34;2105592;28;20236;-62
2022/12/26 06:49:33;;;;;;;14.13;9.05;;;;;;;2.97;100.00;102618.53;2112334;28;20170;-62
2022/12/26 06:50:35;;;;;;;16.90;9.13;;;;;;;3.05;100.00;102623.16;2114037;28;20172;-62
2022/12/26 06:51:35;;;;;;;15.55;8.88;;;;;;;3.10;100.00;102633.09;2105577;28;20183;-62
2022/12/26 06:52:36;;;;;;;21.17;9.73;;;;;;;3.12;100.00;102634.38;2105257;28;20238;-62
2022/12/26 06:53:37;;;;;;;13.13;9.63;;;;;;;3.09;100.00;102621.31;2105693;28;20240;-62
2022/12/26 06:54:37;;;;;;;14.63;9.40;;;;;;;3.16;100.00;102635.31;2105646;28;20286;-62
2022/12/26 06:55:37;;;;;;;13.77;9.67;;;;;;;3.20;100.00;102630.78;2105748;28;20262;-62